Other Surface Observations
Issued by NWS Great Falls, MT

Home | Current Version | Previous Version | Text Only | Print | Product List | Glossary On
Versions: 1 2 3 4 5 6 7 8 9 10 11 12 13 14 15 16 17 18 19 20 21 22 23 24 25 26 27 28 29 30 31 32 33 34 35 36 37 38 39 40 41 42 43 44 45 46 47 48 49 50
000
SXUS55 KTFX 251009
OSOTFX

AREA AWOS OBSERVATIONS
NATIONAL WEATHER SERVICE GREAT FALLS MT
0307 AM MST Sun Feb 25 2018

METAR K7S1 250955Z AUTO 19000KT 40SM M07/M14 A2983 RMK A01 T10721138
METAR K7S1 250855Z AUTO 13000KT 40SM M08/M16 A2984 RMK A01 T10831155
METAR K97M 250955Z AUTO 22002KT 40SM M09/M16 A2968 RMK A01 T10941155
METAR K9S2 250955Z AUTO 27004KT 40SM M13/M18 A2961 RMK A01 T11271177
METAR K9S5 250955Z AUTO 24006KT 40SM M03/M14 A2980 RMK A01 T10331138
METAR KRPX 250855Z AUTO 20007KT 40SM M09/M16 A2965 RMK A01 T10941155
METAR KS34 250955Z AUTO 17003KT 25SM M01/M09 A2988 RMK A01 T10051088
METAR KS34 250855Z AUTO 28000KT 40SM M02/M07 A2989 RMK A01 T10221072
METAR KTHM 250855Z AUTO 24003KT 25SM M02/M06 A2995 RMK A01 T10221061



USA.gov is the U.S. government's official web portal to all federal, state and local government web resources and services.